Main page
METAR-TAF:

METAR-TAF

Airports :

Lydd Airport

Lydd, England

latitude: 50-57N, longitude: 000-56E, elevation: 3 m

Current weather observation

The report was made 25 minutes ago, at 16:50 UTC
Wind 14 kt from the East/Northeast
Temperature 20°C
Humidity 64%
Pressure 1017 hPa
Visibility 10 km or more
no clouds below 1500 m and no cumulonimbus

METAR: EGMD 191650Z 07014KT CAVOK 20/13 Q1017

Time: 18:15 (17:15 UTC)

Forecast

The report was made 3 hours and 15 minutes ago, at 14:00 UTC
Forecast valid from 19 at 15 UTC to 19 at 24 UTC
Wind 12 kt from the East/Northeast
Visibility 10 km or more
no clouds below 1500 m and no cumulonimbus

TAF: EGMD 191400Z 1915/1924 07012KT CAVOK

Weather observations and forecasts of more than 4000 airports (METAR and TAF reports).

The available stations are represented by yellow and red dots on the map.

Hover mouse over dot to see the name of the station.

Then click to see weather observations and forecasts.

To change the map : click on the green buttons with a black cross to zoom in, on the green button with a dash to zoom out, or on the green arrows for adjacent maps.


METAR-TAF: